createdAt,value
2023-05-19T00:00:55.489Z,96972.09
2023-05-19T00:02:21.628Z,96975.00
2023-05-19T00:03:27.026Z,96972.59
2023-05-19T00:04:32.102Z,96967.50
2023-05-19T00:05:47.274Z,96969.34
2023-05-19T00:06:55.188Z,96968.81
2023-05-19T00:08:02.072Z,96960.25
2023-05-19T00:09:10.614Z,96963.69
2023-05-19T00:10:16.743Z,96968.25
2023-05-19T00:11:23.822Z,96961.53
2023-05-19T00:12:30.345Z,96968.47
2023-05-19T00:13:36.489Z,96967.69
2023-05-19T00:14:40.744Z,96969.78
2023-05-19T00:16:03.688Z,96961.19
2023-05-19T00:17:09.771Z,96961.19
2023-05-19T00:18:17.866Z,96970.59
2023-05-19T00:19:24.987Z,96966.06
2023-05-19T00:20:33.163Z,96966.00
2023-05-19T00:21:38.860Z,96959.53
2023-05-19T00:23:03.511Z,96965.34
2023-05-19T00:24:07.912Z,96964.81
2023-05-19T00:25:14.792Z,96961.00
2023-05-19T00:26:19.276Z,96957.78
2023-05-19T00:27:25.210Z,96969.28
2023-05-19T00:28:46.894Z,96960.94
2023-05-19T00:29:50.644Z,96958.81
2023-05-19T00:30:55.681Z,96966.03
2023-05-19T00:32:00.164Z,96960.44
2023-05-19T00:33:07.999Z,96961.00
2023-05-19T00:34:13.390Z,96959.16
2023-05-19T00:35:20.492Z,96956.22
2023-05-19T00:36:26.749Z,96960.28
2023-05-19T00:37:34.032Z,96953.53
2023-05-19T00:38:39.685Z,96954.13
2023-05-19T00:39:44.488Z,96947.16
2023-05-19T00:40:47.537Z,96952.50
2023-05-19T00:41:52.094Z,96952.50
2023-05-19T00:42:56.784Z,96953.63
2023-05-19T00:44:07.026Z,96953.63
2023-05-19T00:45:12.767Z,96958.16
2023-05-19T00:46:18.200Z,96956.31
2023-05-19T00:47:23.031Z,96955.25
2023-05-19T00:48:30.059Z,96941.31
2023-05-19T00:49:36.229Z,96949.91
2023-05-19T00:50:45.949Z,96949.91
2023-05-19T00:51:52.966Z,96947.25
2023-05-19T00:52:59.410Z,96947.47
2023-05-19T00:54:05.366Z,96944.81
2023-05-19T00:55:15.896Z,96951.50
2023-05-19T00:56:24.205Z,96950.97
2023-05-19T00:57:50.101Z,96945.06
2023-05-19T00:58:56.438Z,96950.88
2023-05-19T01:00:22.118Z,96950.31
2023-05-19T01:01:29.058Z,96941.75
2023-05-19T01:02:34.118Z,96947.09
2023-05-19T01:03:41.301Z,96948.16
2023-05-19T01:04:47.188Z,96949.19
2023-05-19T01:05:54.640Z,96944.94
2023-05-19T01:06:59.796Z,96947.00
2023-05-19T01:08:05.137Z,96948.88
2023-05-19T01:09:10.340Z,96947.50
2023-05-19T01:10:14.751Z,96946.69
2023-05-19T01:11:20.400Z,96954.97
2023-05-19T01:12:24.270Z,96948.25
2023-05-19T01:13:31.740Z,96946.88
2023-05-19T01:14:36.662Z,96951.66
2023-05-19T01:16:00.446Z,96947.63
2023-05-19T01:17:17.581Z,96948.13
2023-05-19T01:18:31.329Z,96941.63
2023-05-19T01:20:10.064Z,96944.81
2023-05-19T01:21:52.218Z,96940.44
2023-05-19T01:23:15.643Z,96937.41
2023-05-19T01:24:36.445Z,96940.91
2023-05-19T01:26:18.857Z,96933.63
2023-05-19T01:27:43.496Z,96938.94
2023-05-19T01:29:18.838Z,96938.94
2023-05-19T01:30:32.216Z,96936.28
2023-05-19T01:31:42.185Z,96933.13
2023-05-19T01:32:49.480Z,96934.28
2023-05-19T01:34:05.574Z,96940.19
2023-05-19T01:35:14.093Z,96928.47
2023-05-19T01:36:39.402Z,96939.94
2023-05-19T01:37:46.297Z,96932.19
2023-05-19T01:38:55.565Z,96942.63
2023-05-19T01:40:00.458Z,96943.34
2023-05-19T01:41:09.130Z,96945.91
2023-05-19T01:42:15.174Z,96949.06
2023-05-19T01:43:24.017Z,96942.00
2023-05-19T01:44:28.784Z,96940.56
2023-05-19T01:45:38.024Z,96938.63
2023-05-19T01:46:44.204Z,96944.94
2023-05-19T01:47:51.415Z,96943.22
2023-05-19T01:48:58.105Z,96943.13
2023-05-19T01:50:02.422Z,96956.63
2023-05-19T01:51:10.719Z,96947.19
2023-05-19T01:52:16.501Z,96949.72
2023-05-19T01:53:22.380Z,96950.69
2023-05-19T01:54:26.479Z,96951.66
2023-05-19T01:55:30.980Z,96951.53
2023-05-19T01:56:47.527Z,96950.66
2023-05-19T01:58:06.175Z,96943.88
2023-05-19T01:59:29.407Z,96947.22
2023-05-19T02:00:47.867Z,96946.91
2023-05-19T02:01:55.640Z,96944.72
2023-05-19T02:03:11.642Z,96940.41
2023-05-19T02:04:23.359Z,96943.06
2023-05-19T02:05:38.094Z,96944.16
2023-05-19T02:06:48.052Z,96947.59
2023-05-19T02:08:04.211Z,96946.00
2023-05-19T02:09:15.378Z,96945.19
2023-05-19T02:10:26.596Z,96947.84
2023-05-19T02:11:38.033Z,96946.22
2023-05-19T02:12:42.960Z,96948.53
2023-05-19T02:14:15.876Z,96947.63
2023-05-19T02:15:27.531Z,96952.81
2023-05-19T02:16:37.209Z,96952.72
2023-05-19T02:17:48.523Z,96951.34
2023-05-19T02:18:54.084Z,96947.31
2023-05-19T02:19:58.488Z,96949.63
2023-05-19T02:21:03.485Z,96956.22
2023-05-19T02:22:08.442Z,96956.22
2023-05-19T02:23:12.374Z,96954.63
2023-05-19T02:24:18.621Z,96951.38
2023-05-19T02:25:24.694Z,96959.13
2023-05-19T02:26:29.287Z,96954.63
2023-05-19T02:27:33.588Z,96951.72
2023-05-19T02:28:40.500Z,96953.34
2023-05-19T02:29:45.766Z,96948.81
2023-05-19T02:30:53.118Z,96951.50
2023-05-19T02:32:02.611Z,96950.91
2023-05-19T02:33:08.680Z,96948.13
2023-05-19T02:34:12.702Z,96961.44
2023-05-19T02:35:19.326Z,96959.47
2023-05-19T02:36:24.378Z,96954.41
2023-05-19T02:37:29.676Z,96962.03
2023-05-19T02:38:35.541Z,96965.75
2023-05-19T02:39:40.011Z,96966.00
2023-05-19T02:40:44.003Z,96965.41
2023-05-19T02:41:50.231Z,96962.72
2023-05-19T02:42:56.130Z,96969.34
2023-05-19T02:44:02.125Z,96958.69
2023-05-19T02:45:07.110Z,96956.25
2023-05-19T02:46:13.100Z,96961.13
2023-05-19T02:47:37.592Z,96960.06
2023-05-19T02:48:43.098Z,96963.31
2023-05-19T02:49:46.304Z,96963.44
2023-05-19T02:50:52.541Z,96956.81
2023-05-19T02:52:15.281Z,96966.66
2023-05-19T02:53:23.562Z,96957.28
2023-05-19T02:54:27.215Z,96961.78
2023-05-19T02:55:34.064Z,96957.28
2023-05-19T02:56:37.780Z,96956.00
2023-05-19T02:57:44.320Z,96955.56
2023-05-19T02:58:49.225Z,96954.50
2023-05-19T02:59:55.170Z,96949.16
2023-05-19T03:01:01.999Z,96948.94
2023-05-19T03:02:12.149Z,96943.97
2023-05-19T03:03:23.182Z,96948.22
2023-05-19T03:04:30.383Z,96942.91
2023-05-19T03:05:38.876Z,96943.50
2023-05-19T03:06:48.331Z,96942.22
2023-05-19T03:07:57.164Z,96940.94
2023-05-19T03:09:06.188Z,96937.22
2023-05-19T03:10:11.932Z,96937.22
2023-05-19T03:11:19.256Z,96944.19
2023-05-19T03:12:23.270Z,96937.78
2023-05-19T03:13:29.595Z,96940.44
2023-05-19T03:14:53.596Z,96933.28
2023-05-19T03:15:59.425Z,96941.25
2023-05-19T03:17:03.527Z,96929.81
2023-05-19T03:18:11.302Z,96938.38
2023-05-19T03:19:20.965Z,96932.00
2023-05-19T03:20:45.288Z,96936.75
2023-05-19T03:21:49.266Z,96931.44
2023-05-19T03:22:53.834Z,96926.09
2023-05-19T03:23:59.204Z,96928.53
2023-05-19T03:25:23.023Z,96927.13
2023-05-19T03:26:26.300Z,96925.53
2023-05-19T03:27:34.070Z,96929.81
2023-05-19T03:28:37.423Z,96929.81
2023-05-19T03:29:42.770Z,96934.91
2023-05-19T03:30:50.416Z,96929.56
2023-05-19T03:31:55.704Z,96934.09
2023-05-19T03:33:02.509Z,96927.72
2023-05-19T03:34:08.467Z,96933.06
2023-05-19T03:35:14.666Z,96933.06
2023-05-19T03:36:20.470Z,96936.75
2023-05-19T03:37:24.839Z,96943.72
2023-05-19T03:38:47.755Z,96943.13
2023-05-19T03:39:52.217Z,96937.22
2023-05-19T03:40:57.417Z,96939.31
2023-05-19T03:42:00.349Z,96936.88
2023-05-19T03:43:06.295Z,96941.41
2023-05-19T03:44:11.452Z,96931.22
2023-05-19T03:45:34.189Z,96931.69
2023-05-19T03:46:38.902Z,96928.47
2023-05-19T03:47:44.413Z,96923.13
2023-05-19T03:48:57.864Z,96922.31
2023-05-19T03:50:05.688Z,96930.53
2023-05-19T03:51:11.936Z,96934.81
2023-05-19T03:52:17.550Z,96925.00
2023-05-19T03:53:24.774Z,96921.03
2023-05-19T03:54:30.992Z,96932.72
2023-05-19T03:55:36.314Z,96930.06
2023-05-19T03:56:43.455Z,96930.66
2023-05-19T03:57:59.906Z,96930.06
2023-05-19T03:59:07.491Z,96935.38
2023-05-19T04:00:17.087Z,96931.13
2023-05-19T04:02:05.762Z,96930.31
2023-05-19T04:03:11.249Z,96932.50
2023-05-19T04:04:16.020Z,96937.06
2023-05-19T04:05:20.347Z,96934.41
2023-05-19T04:06:28.838Z,96935.19
2023-05-19T04:07:36.619Z,96930.66
2023-05-19T04:08:41.782Z,96934.69
2023-05-19T04:09:50.123Z,96937.38
2023-05-19T04:10:55.708Z,96933.66
2023-05-19T04:12:02.072Z,96945.13
2023-05-19T04:13:11.290Z,96938.78
2023-05-19T04:14:14.497Z,96944.09
2023-05-19T04:15:20.256Z,96951.28
2023-05-19T04:16:26.013Z,96951.50
2023-05-19T04:17:32.817Z,96945.34
2023-05-19T04:18:38.022Z,96954.16
2023-05-19T04:19:43.225Z,96945.34
2023-05-19T04:20:49.310Z,96949.91
2023-05-19T04:21:58.442Z,96946.97
2023-05-19T04:23:02.447Z,96949.66
2023-05-19T04:24:09.078Z,96944.91
2023-05-19T04:25:13.853Z,96942.81
2023-05-19T04:26:20.846Z,96945.47
2023-05-19T04:27:28.352Z,96939.91
2023-05-19T04:28:53.687Z,96936.44
2023-05-19T04:29:58.674Z,96940.72
2023-05-19T04:31:23.619Z,96945.81
2023-05-19T04:32:29.496Z,96942.34
2023-05-19T04:33:36.388Z,96943.97
2023-05-19T04:34:42.282Z,96947.44
2023-05-19T04:35:50.956Z,96948.22
2023-05-19T04:36:58.117Z,96948.81
2023-05-19T04:38:03.585Z,96954.72
2023-05-19T04:39:10.343Z,96959.00
2023-05-19T04:40:16.639Z,96948.00
2023-05-19T04:41:24.188Z,96952.53
2023-05-19T04:42:49.967Z,96952.44
2023-05-19T04:43:54.769Z,96946.50
2023-05-19T04:45:00.297Z,96946.03
2023-05-19T04:46:07.210Z,96947.09
2023-05-19T04:47:13.841Z,96948.22
2023-05-19T04:48:18.784Z,96940.25
2023-05-19T04:49:44.295Z,96938.66
2023-05-19T04:50:50.128Z,96938.66
2023-05-19T04:51:57.466Z,96937.03
2023-05-19T04:53:05.332Z,96934.34
2023-05-19T04:54:10.804Z,96930.41
2023-05-19T04:55:14.400Z,96934.44
2023-05-19T04:56:37.398Z,96938.19
2023-05-19T04:57:42.674Z,96934.44
2023-05-19T04:58:47.647Z,96934.00
2023-05-19T04:59:51.409Z,96937.22
2023-05-19T05:01:16.060Z,96933.53
2023-05-19T05:02:22.053Z,96938.38
2023-05-19T05:03:28.551Z,96946.13
2023-05-19T05:04:33.724Z,96936.84
2023-05-19T05:05:38.424Z,96947.28
2023-05-19T05:07:02.724Z,96939.06
2023-05-19T05:08:08.443Z,96938.59
2023-05-19T05:09:13.858Z,96939.41
2023-05-19T05:10:19.724Z,96937.56
2023-05-19T05:11:27.659Z,96938.97
2023-05-19T05:12:33.739Z,96939.25
2023-05-19T05:13:40.801Z,96934.75
2023-05-19T05:14:45.684Z,96933.00
2023-05-19T05:15:52.923Z,96927.69
2023-05-19T05:16:58.139Z,96925.34
2023-05-19T05:18:05.106Z,96928.56
2023-05-19T05:19:30.029Z,96923.00
2023-05-19T05:20:36.509Z,96921.97
2023-05-19T05:21:42.552Z,96923.34
2023-05-19T05:22:56.050Z,96923.66
2023-05-19T05:24:00.602Z,96927.97
2023-05-19T05:25:07.428Z,96921.59
2023-05-19T05:26:18.214Z,96917.84
2023-05-19T05:27:23.423Z,96925.06
2023-05-19T05:28:27.427Z,96929.31
2023-05-19T05:29:32.727Z,96932.59
2023-05-19T05:30:38.061Z,96922.72
2023-05-19T05:31:44.242Z,96926.78
2023-05-19T05:32:48.365Z,96921.19
2023-05-19T05:33:53.447Z,96921.53
2023-05-19T05:34:58.867Z,96924.19
2023-05-19T05:36:03.103Z,96924.75
2023-05-19T05:37:10.354Z,96929.84
2023-05-19T05:38:15.692Z,96922.88
2023-05-19T05:39:23.386Z,96920.22
2023-05-19T05:40:29.829Z,96925.34
2023-05-19T05:41:42.173Z,96930.41
2023-05-19T05:42:45.750Z,96924.84
2023-05-19T05:44:08.826Z,96925.66
2023-05-19T05:45:13.988Z,96924.59
2023-05-19T05:46:20.136Z,96926.56
2023-05-19T05:47:24.178Z,96929.00
2023-05-19T05:48:30.083Z,96923.66
2023-05-19T05:49:39.774Z,96932.44
2023-05-19T05:50:46.210Z,96921.22
2023-05-19T05:52:01.883Z,96919.38
2023-05-19T05:53:15.642Z,96929.78
2023-05-19T05:54:25.022Z,96933.25
2023-05-19T05:55:51.164Z,96930.03
2023-05-19T05:56:55.903Z,96934.56
2023-05-19T05:58:02.594Z,96941.25
2023-05-19T05:59:06.723Z,96927.09
2023-05-19T06:00:15.983Z,96931.66
2023-05-19T06:01:21.778Z,96941.03
2023-05-19T06:02:26.603Z,96932.78
2023-05-19T06:03:29.919Z,96934.41
2023-05-19T06:04:35.127Z,96935.53
2023-05-19T06:05:39.904Z,96941.91
2023-05-19T06:07:05.138Z,96934.94
2023-05-19T06:08:09.550Z,96934.94
2023-05-19T06:09:16.031Z,96944.59
2023-05-19T06:10:22.593Z,96946.75
2023-05-19T06:11:27.460Z,96944.59
2023-05-19T06:12:31.018Z,96947.84
2023-05-19T06:13:37.406Z,96953.16
2023-05-19T06:14:40.607Z,96955.25
2023-05-19T06:15:46.253Z,96958.50
2023-05-19T06:16:50.298Z,96961.16
2023-05-19T06:18:15.387Z,96955.72
2023-05-19T06:19:20.363Z,96951.44
2023-05-19T06:20:45.803Z,96950.06
2023-05-19T06:21:50.411Z,96953.31
2023-05-19T06:22:56.515Z,96953.06
2023-05-19T06:24:01.049Z,96953.06
2023-05-19T06:25:06.700Z,96956.28
2023-05-19T06:26:30.158Z,96964.88
2023-05-19T06:27:36.149Z,96955.84
2023-05-19T06:28:42.904Z,96956.13
2023-05-19T06:29:48.174Z,96956.25
2023-05-19T06:30:52.605Z,96954.47
2023-05-19T06:31:57.833Z,96956.41
2023-05-19T06:33:05.156Z,96953.00
2023-05-19T06:34:13.303Z,96947.75
2023-05-19T06:35:18.458Z,96940.91
2023-05-19T06:36:25.325Z,96946.88
2023-05-19T06:37:30.431Z,96948.00
2023-05-19T06:38:36.664Z,96942.53
2023-05-19T06:39:42.794Z,96945.50
2023-05-19T06:41:06.820Z,96937.28
2023-05-19T06:42:12.834Z,96941.88
2023-05-19T06:43:21.284Z,96942.19
2023-05-19T06:44:45.465Z,96947.63
2023-05-19T06:45:50.278Z,96946.63
2023-05-19T06:46:55.725Z,96946.47
2023-05-19T06:48:01.046Z,96951.31
2023-05-19T06:49:23.609Z,96950.25
2023-05-19T06:50:29.165Z,96945.25
2023-05-19T06:51:33.005Z,96942.31
2023-05-19T06:52:39.436Z,96947.16
2023-05-19T06:54:03.239Z,96937.53
2023-05-19T06:55:08.945Z,96940.50
2023-05-19T06:56:15.863Z,96942.94
2023-05-19T06:57:22.511Z,96940.81
2023-05-19T06:58:29.193Z,96940.81
2023-05-19T06:59:33.433Z,96940.31
2023-05-19T07:00:39.377Z,96940.66
2023-05-19T07:01:43.951Z,96939.91
2023-05-19T07:02:50.327Z,96940.78
2023-05-19T07:03:54.748Z,96941.91
2023-05-19T07:05:01.176Z,96943.84
2023-05-19T07:06:07.703Z,96944.94
2023-05-19T07:07:13.995Z,96942.59
2023-05-19T07:08:18.362Z,96954.16
2023-05-19T07:09:23.916Z,96949.91
2023-05-19T07:10:28.039Z,96941.97
2023-05-19T07:11:34.602Z,96947.63
2023-05-19T07:12:41.979Z,96949.53
2023-05-19T07:13:46.168Z,96949.06
2023-05-19T07:15:11.170Z,96952.31
2023-05-19T07:16:16.559Z,96950.75
2023-05-19T07:17:25.166Z,96945.94
2023-05-19T07:18:32.852Z,96943.81
2023-05-19T07:19:37.842Z,96954.00
2023-05-19T07:20:43.755Z,96947.63
2023-05-19T07:21:50.065Z,96952.22
2023-05-19T07:22:56.105Z,96953.59
2023-05-19T07:24:01.176Z,96950.63
2023-05-19T07:25:07.218Z,96952.03
2023-05-19T07:26:11.463Z,96942.13
2023-05-19T07:27:17.735Z,96945.34
2023-05-19T07:28:23.469Z,96946.16
2023-05-19T07:29:29.164Z,96941.38
2023-05-19T07:30:35.057Z,96943.53
2023-05-19T07:31:40.735Z,96952.13
2023-05-19T07:32:47.741Z,96949.75
2023-05-19T07:33:54.536Z,96944.69
2023-05-19T07:35:00.248Z,96955.94
2023-05-19T07:36:04.874Z,96949.78
2023-05-19T07:37:28.435Z,96952.72
2023-05-19T07:38:35.919Z,96950.03
2023-05-19T07:39:43.614Z,96946.06
2023-05-19T07:41:07.032Z,96952.47
2023-05-19T07:42:13.976Z,96953.81
2023-05-19T07:43:39.700Z,96948.97
2023-05-19T07:44:43.967Z,96954.34
2023-05-19T07:45:49.488Z,96952.47
2023-05-19T07:46:54.242Z,96950.34
2023-05-19T07:48:00.556Z,96952.78
2023-05-19T07:49:06.743Z,96955.44
2023-05-19T07:50:13.524Z,96952.78
2023-05-19T07:51:17.216Z,96947.16
2023-05-19T07:52:39.927Z,96952.50
2023-05-19T07:53:44.989Z,96957.31
2023-05-19T07:54:51.227Z,96953.59
2023-05-19T07:55:57.075Z,96950.63
2023-05-19T07:57:04.324Z,96949.81
2023-05-19T07:58:10.069Z,96956.00
2023-05-19T07:59:17.586Z,96947.44
2023-05-19T08:00:22.185Z,96950.13
2023-05-19T08:01:29.739Z,96942.09
2023-05-19T08:02:36.522Z,96947.22
2023-05-19T08:03:43.200Z,96944.84
2023-05-19T08:04:48.921Z,96935.75
2023-05-19T08:05:53.466Z,96938.97
2023-05-19T08:06:56.571Z,96939.28
2023-05-19T08:08:03.246Z,96940.63
2023-05-19T08:09:08.670Z,96936.34
2023-05-19T08:10:13.418Z,96945.97
2023-05-19T08:11:19.963Z,96944.34
2023-05-19T08:12:24.763Z,96948.63
2023-05-19T08:13:29.434Z,96951.00
2023-05-19T08:14:36.326Z,96945.88
2023-05-19T08:15:39.613Z,96949.06
2023-05-19T08:16:46.165Z,96954.69
2023-05-19T08:17:51.150Z,96951.72
2023-05-19T08:19:11.090Z,96946.88
2023-05-19T08:20:15.206Z,96947.13
2023-05-19T08:21:20.253Z,96948.97
2023-05-19T08:22:26.632Z,96944.13
2023-05-19T08:23:30.434Z,96951.03
2023-05-19T08:24:35.903Z,96945.97
2023-05-19T08:25:41.897Z,96950.50
2023-05-19T08:26:46.861Z,96951.00
2023-05-19T08:27:50.821Z,96948.28
2023-05-19T08:28:55.941Z,96954.94
2023-05-19T08:30:01.059Z,96950.91
2023-05-19T08:31:06.828Z,96948.75
2023-05-19T08:32:13.039Z,96948.16
2023-05-19T08:33:21.198Z,96951.34
2023-05-19T08:34:26.669Z,96951.84
2023-05-19T08:35:32.736Z,96955.31
2023-05-19T08:36:39.966Z,96959.88
2023-05-19T08:37:45.467Z,96952.13
2023-05-19T08:38:51.212Z,96950.50
2023-05-19T08:39:57.426Z,96947.00
2023-05-19T08:41:02.486Z,96953.44
2023-05-19T08:42:10.272Z,96952.63
2023-05-19T08:43:14.872Z,96959.00
2023-05-19T08:44:19.463Z,96962.50
2023-05-19T08:45:30.103Z,96960.63
2023-05-19T08:46:35.457Z,96957.97
2023-05-19T08:47:40.239Z,96956.09
2023-05-19T08:48:50.124Z,96956.66
2023-05-19T08:49:56.970Z,96962.81
2023-05-19T08:51:09.436Z,96961.50
2023-05-19T08:52:24.929Z,96968.97
2023-05-19T08:53:34.803Z,96964.66
2023-05-19T08:54:45.519Z,96964.91
2023-05-19T08:55:59.912Z,96969.16
2023-05-19T08:57:05.748Z,96970.09
2023-05-19T08:58:10.794Z,96965.53
2023-05-19T08:59:15.112Z,96975.63
2023-05-19T09:00:20.984Z,96970.78
2023-05-19T09:01:31.951Z,96967.56
2023-05-19T09:02:37.141Z,96967.25
2023-05-19T09:04:00.641Z,96963.97
2023-05-19T09:05:04.941Z,96971.97
2023-05-19T09:06:09.549Z,96970.63
2023-05-19T09:07:15.415Z,96967.63
2023-05-19T09:08:19.702Z,96967.81
2023-05-19T09:09:23.889Z,96968.81
2023-05-19T09:10:29.217Z,96972.69
2023-05-19T09:11:34.559Z,96972.63
2023-05-19T09:12:57.654Z,96978.97
2023-05-19T09:14:02.288Z,96977.56
2023-05-19T09:15:08.986Z,96984.00
2023-05-19T09:16:14.667Z,96980.75
2023-05-19T09:17:23.334Z,96974.84
2023-05-19T09:18:28.949Z,96972.66
2023-05-19T09:19:32.622Z,96973.22
2023-05-19T09:20:40.008Z,96975.88
2023-05-19T09:21:46.822Z,96973.72
2023-05-19T09:22:50.899Z,96983.34
2023-05-19T09:23:56.169Z,96970.56
2023-05-19T09:25:01.132Z,96974.03
2023-05-19T09:26:08.199Z,96966.59
2023-05-19T09:27:16.958Z,96969.00
2023-05-19T09:28:29.859Z,96973.88
2023-05-19T09:29:33.029Z,96965.84
2023-05-19T09:30:37.443Z,96977.13
2023-05-19T09:32:01.259Z,96974.19
2023-05-19T09:33:10.436Z,96966.97
2023-05-19T09:34:16.278Z,96965.69
2023-05-19T09:35:38.918Z,96974.31
2023-05-19T09:36:42.514Z,96977.06
2023-05-19T09:38:06.915Z,96972.03
2023-05-19T09:40:39.060Z,96974.47
2023-05-19T09:41:43.201Z,96979.06
2023-05-19T09:42:49.012Z,96976.47
2023-05-19T09:44:16.143Z,96972.47
2023-05-19T09:45:23.710Z,96980.81
2023-05-19T09:46:50.648Z,96971.47
2023-05-19T09:47:55.681Z,96971.28
2023-05-19T09:48:59.278Z,96967.88
2023-05-19T09:50:04.071Z,96969.56
2023-05-19T09:51:11.146Z,96972.53
2023-05-19T09:52:18.717Z,96965.69
2023-05-19T09:53:41.114Z,96966.19
2023-05-19T09:54:45.507Z,96968.25
2023-05-19T09:55:52.868Z,96974.19
2023-05-19T09:57:00.325Z,96975.00
2023-05-19T09:58:24.463Z,96967.69
2023-05-19T09:59:30.480Z,96971.53
2023-05-19T10:00:37.510Z,96964.59
2023-05-19T10:01:41.930Z,96971.34
2023-05-19T10:02:49.148Z,96971.06
2023-05-19T10:03:54.232Z,96967.34
2023-05-19T10:04:59.438Z,96966.84
2023-05-19T10:06:07.688Z,96970.63
2023-05-19T10:07:14.625Z,96970.69
2023-05-19T10:08:19.284Z,96971.78
2023-05-19T10:09:32.777Z,96975.00
2023-05-19T10:10:36.900Z,96972.09
2023-05-19T10:12:00.524Z,96971.78
2023-05-19T10:13:06.340Z,96972.84
2023-05-19T10:14:12.474Z,96978.16
2023-05-19T10:15:40.744Z,96970.63
2023-05-19T10:16:53.059Z,96978.09
2023-05-19T10:18:19.535Z,96971.06
2023-05-19T10:19:23.762Z,96963.03
2023-05-19T10:20:28.499Z,96965.72
2023-05-19T10:21:41.434Z,96968.38
2023-05-19T10:22:46.470Z,96966.78
2023-05-19T10:24:10.490Z,96963.31
2023-05-19T10:25:19.553Z,96967.03
2023-05-19T10:26:27.340Z,96958.19
2023-05-19T10:27:33.631Z,96967.78
2023-05-19T10:28:46.992Z,96961.84
2023-05-19T10:29:53.263Z,96963.66
2023-05-19T10:31:03.224Z,96962.84
2023-05-19T10:32:12.624Z,96962.84
2023-05-19T10:33:18.534Z,96964.94
2023-05-19T10:34:40.699Z,96969.75
2023-05-19T10:36:03.318Z,96970.78
2023-05-19T10:37:15.623Z,96967.06
2023-05-19T10:38:30.622Z,96968.13
2023-05-19T10:39:36.942Z,96963.84
2023-05-19T10:40:51.992Z,96964.34
2023-05-19T10:42:06.410Z,96957.38
2023-05-19T10:43:23.407Z,96961.09
2023-05-19T10:44:42.577Z,96956.25
2023-05-19T10:45:50.711Z,96957.06
2023-05-19T10:46:56.716Z,96961.59
2023-05-19T10:48:01.226Z,96956.03
2023-05-19T10:49:05.952Z,96957.94
2023-05-19T10:50:12.017Z,96956.38
2023-05-19T10:51:17.616Z,96957.00
2023-05-19T10:52:22.348Z,96956.56
2023-05-19T10:53:33.513Z,96952.91
2023-05-19T10:54:47.525Z,96951.34
2023-05-19T10:55:56.505Z,96952.16
2023-05-19T10:56:59.568Z,96950.06
2023-05-19T10:58:04.390Z,96954.63
2023-05-19T10:59:31.251Z,96949.59
2023-05-19T11:00:36.591Z,96950.94
2023-05-19T11:01:42.708Z,96952.34
2023-05-19T11:02:46.408Z,96948.34
2023-05-19T11:03:52.471Z,96946.78
2023-05-19T11:04:58.683Z,96956.97
2023-05-19T11:06:29.835Z,96959.69
2023-05-19T11:07:33.288Z,96949.56
2023-05-19T11:08:38.758Z,96949.59
2023-05-19T11:09:43.740Z,96957.91
2023-05-19T11:10:48.464Z,96958.72
2023-05-19T11:11:53.574Z,96971.03
2023-05-19T11:12:59.691Z,96958.72
2023-05-19T11:14:05.902Z,96957.66
2023-05-19T11:15:13.302Z,96954.19
2023-05-19T11:16:22.543Z,96952.28
2023-05-19T11:17:27.709Z,96956.59
2023-05-19T11:18:34.467Z,96955.53
2023-05-19T11:19:38.050Z,96951.00
2023-05-19T11:20:42.388Z,96948.56
2023-05-19T11:21:50.795Z,96948.56
2023-05-19T11:23:08.169Z,96952.28
2023-05-19T11:24:32.565Z,96956.88
2023-05-19T11:25:47.678Z,96947.97
2023-05-19T11:26:52.029Z,96940.22
2023-05-19T11:27:55.786Z,96939.13
2023-05-19T11:29:00.612Z,96946.09
2023-05-19T11:30:15.483Z,96947.72
2023-05-19T11:31:23.368Z,96944.22
2023-05-19T11:32:31.965Z,96949.59
2023-05-19T11:33:37.654Z,96949.59
2023-05-19T11:34:41.175Z,96949.81
2023-05-19T11:35:47.313Z,96960.28
2023-05-19T11:36:54.945Z,96958.44
2023-05-19T11:38:18.208Z,96950.63
2023-05-19T11:39:41.979Z,96953.00
2023-05-19T11:40:47.938Z,96950.34
2023-05-19T11:41:52.515Z,96952.22
2023-05-19T11:42:56.312Z,96948.75
2023-05-19T11:44:00.165Z,96957.56
2023-05-19T11:45:29.122Z,96955.38
2023-05-19T11:46:33.931Z,96957.28
2023-05-19T11:47:51.675Z,96954.34
2023-05-19T11:49:03.133Z,96942.00
2023-05-19T11:50:07.848Z,96947.94
2023-05-19T11:51:30.355Z,96945.56
2023-05-19T11:52:34.760Z,96949.59
2023-05-19T11:53:38.719Z,96949.06
2023-05-19T11:55:02.686Z,96961.41
2023-05-19T11:56:07.425Z,96951.50
2023-05-19T11:57:30.640Z,96952.28
2023-05-19T11:58:34.328Z,96959.34
2023-05-19T11:59:44.313Z,96944.94
2023-05-19T12:00:49.760Z,96947.13
2023-05-19T12:01:52.929Z,96951.44
2023-05-19T12:03:15.306Z,96945.59
2023-05-19T12:04:20.507Z,96950.72
2023-05-19T12:05:47.771Z,96950.25
2023-05-19T12:06:51.181Z,96954.25
2023-05-19T12:07:55.271Z,96959.13
2023-05-19T12:09:20.149Z,96954.81
2023-05-19T12:10:24.115Z,96966.56
2023-05-19T12:11:32.292Z,96961.47
2023-05-19T12:12:36.034Z,96955.59
2023-05-19T12:13:41.146Z,96957.69
2023-05-19T12:14:44.904Z,96946.75
2023-05-19T12:15:54.273Z,96947.28
2023-05-19T12:16:58.154Z,96949.25
2023-05-19T12:18:04.170Z,96940.94
2023-05-19T12:19:07.472Z,96949.00
2023-05-19T12:20:13.912Z,96952.22
2023-05-19T12:21:18.966Z,96947.69
2023-05-19T12:22:22.484Z,96943.13
2023-05-19T12:23:27.532Z,96944.50
2023-05-19T12:24:31.829Z,96947.97
2023-05-19T12:25:37.406Z,96944.25
2023-05-19T12:26:43.545Z,96941.06
2023-05-19T12:27:48.981Z,96939.97
2023-05-19T12:28:54.119Z,96947.25
2023-05-19T12:29:57.871Z,96944.03
2023-05-19T12:31:04.498Z,96947.00
2023-05-19T12:32:09.343Z,96935.25
2023-05-19T12:33:17.434Z,96934.16
2023-05-19T12:34:22.148Z,96946.50
2023-05-19T12:35:29.372Z,96939.81
2023-05-19T12:36:33.267Z,96935.25
2023-05-19T12:37:43.046Z,96942.25
2023-05-19T12:38:48.458Z,96940.63
2023-05-19T12:39:53.834Z,96941.44
2023-05-19T12:41:01.295Z,96933.91
2023-05-19T12:42:08.168Z,96941.94
2023-05-19T12:43:23.686Z,96938.22
2023-05-19T12:44:28.957Z,96933.63
2023-05-19T12:45:37.543Z,96928.56
2023-05-19T12:46:43.998Z,96927.28
2023-05-19T12:47:51.486Z,96925.16
2023-05-19T12:49:03.501Z,96927.34
2023-05-19T12:50:10.427Z,96915.06
2023-05-19T12:51:18.914Z,96914.56
2023-05-19T12:52:25.147Z,96908.13
2023-05-19T12:53:29.906Z,96910.03
2023-05-19T12:54:36.623Z,96913.31
2023-05-19T12:55:43.624Z,96905.25
2023-05-19T12:56:53.509Z,96914.94
2023-05-19T12:58:00.122Z,96904.47
2023-05-19T12:59:04.772Z,96907.72
2023-05-19T13:00:17.829Z,96903.94
2023-05-19T13:01:25.733Z,96900.22
2023-05-19T13:02:31.624Z,96905.03
2023-05-19T13:03:43.895Z,96894.84
2023-05-19T13:04:49.428Z,96895.94
2023-05-19T13:05:54.154Z,96891.38
2023-05-19T13:06:57.867Z,96889.75
2023-05-19T13:08:04.242Z,96883.56
2023-05-19T13:09:08.674Z,96879.84
2023-05-19T13:10:13.578Z,96882.22
2023-05-19T13:11:17.760Z,96883.59
2023-05-19T13:12:22.520Z,96882.25
2023-05-19T13:13:26.528Z,96876.06
2023-05-19T13:14:30.931Z,96881.97
2023-05-19T13:15:36.973Z,96887.09
2023-05-19T13:16:41.810Z,96879.84
2023-05-19T13:17:47.356Z,96878.22
2023-05-19T13:18:54.934Z,96877.16
2023-05-19T13:19:57.963Z,96879.56
2023-05-19T13:21:05.395Z,96880.38
2023-05-19T13:22:10.366Z,96878.78
2023-05-19T13:23:15.893Z,96873.41
2023-05-19T13:24:20.394Z,96875.00
2023-05-19T13:25:25.003Z,96866.16
2023-05-19T13:26:30.997Z,96864.28
2023-05-19T13:27:35.160Z,96871.25